sensor_id;sensor_type;location;lat;lon;timestamp;pressure;altitude;pressure_sealevel;temperature;humidity
45441;BME280;31189;38.790;-77.084;2024-03-23T00:51:53;101929.09;;;12.63;32.86
45441;BME280;31189;38.790;-77.084;2024-03-23T00:54:19;101925.64;;;11.00;35.02
45441;BME280;31189;38.790;-77.084;2024-03-23T00:56:44;101933.10;;;12.18;34.07
45441;BME280;31189;38.790;-77.084;2024-03-23T00:59:10;101930.69;;;11.93;33.77
45441;BME280;31189;38.790;-77.084;2024-03-23T01:01:36;101933.41;;;10.69;35.35
45441;BME280;31189;38.790;-77.084;2024-03-23T01:04:03;101932.25;;;11.87;33.91
45441;BME280;31189;38.790;-77.084;2024-03-23T01:06:27;101926.01;;;10.98;34.81
45441;BME280;31189;38.790;-77.084;2024-03-23T01:08:53;101920.37;;;11.79;34.06
45441;BME280;31189;38.790;-77.084;2024-03-23T01:11:19;101917.28;;;12.41;33.59
45441;BME280;31189;38.790;-77.084;2024-03-23T01:13:44;101911.82;;;12.36;33.48
45441;BME280;31189;38.790;-77.084;2024-03-23T01:16:10;101914.90;;;12.09;34.07
45441;BME280;31189;38.790;-77.084;2024-03-23T01:18:36;101912.01;;;12.34;34.08
45441;BME280;31189;38.790;-77.084;2024-03-23T01:21:01;101904.36;;;11.54;34.44
45441;BME280;31189;38.790;-77.084;2024-03-23T01:23:27;101904.16;;;12.81;33.13
45441;BME280;31189;38.790;-77.084;2024-03-23T01:25:53;101894.50;;;11.78;34.64
45441;BME280;31189;38.790;-77.084;2024-03-23T01:28:18;101888.75;;;12.32;34.58
45441;BME280;31189;38.790;-77.084;2024-03-23T01:30:44;101891.91;;;12.51;34.77
45441;BME280;31189;38.790;-77.084;2024-03-23T01:33:10;101888.61;;;12.06;34.89
45441;BME280;31189;38.790;-77.084;2024-03-23T01:35:35;101879.09;;;12.37;34.42
45441;BME280;31189;38.790;-77.084;2024-03-23T01:38:01;101868.58;;;12.90;33.97
45441;BME280;31189;38.790;-77.084;2024-03-23T01:40:27;101861.28;;;11.82;34.25
45441;BME280;31189;38.790;-77.084;2024-03-23T01:42:58;101861.61;;;11.77;34.73
45441;BME280;31189;38.790;-77.084;2024-03-23T01:45:18;101859.79;;;12.16;34.72
45441;BME280;31189;38.790;-77.084;2024-03-23T01:47:44;101857.92;;;12.75;33.77
45441;BME280;31189;38.790;-77.084;2024-03-23T01:50:09;101858.87;;;13.08;33.66
45441;BME280;31189;38.790;-77.084;2024-03-23T01:52:35;101850.88;;;12.52;35.36
45441;BME280;31189;38.790;-77.084;2024-03-23T01:55:01;101845.48;;;13.12;34.39
45441;BME280;31189;38.790;-77.084;2024-03-23T01:57:26;101838.41;;;11.09;36.38
45441;BME280;31189;38.790;-77.084;2024-03-23T01:59:52;101831.24;;;12.97;33.93
45441;BME280;31189;38.790;-77.084;2024-03-23T02:02:17;101826.46;;;12.62;34.99
45441;BME280;31189;38.790;-77.084;2024-03-23T02:04:43;101821.29;;;12.95;33.91
45441;BME280;31189;38.790;-77.084;2024-03-23T02:07:09;101830.44;;;12.56;34.42
45441;BME280;31189;38.790;-77.084;2024-03-23T02:09:34;101814.23;;;12.29;35.75
45441;BME280;31189;38.790;-77.084;2024-03-23T02:12:02;101816.69;;;12.35;36.03
45441;BME280;31189;38.790;-77.084;2024-03-23T02:14:26;101812.91;;;12.03;36.81
45441;BME280;31189;38.790;-77.084;2024-03-23T02:16:51;101814.00;;;12.27;37.95
45441;BME280;31189;38.790;-77.084;2024-03-23T02:19:17;101808.92;;;12.39;38.74
45441;BME280;31189;38.790;-77.084;2024-03-23T02:21:43;101802.00;;;12.81;41.00
45441;BME280;31189;38.790;-77.084;2024-03-23T02:24:08;101795.68;;;12.82;42.71
45441;BME280;31189;38.790;-77.084;2024-03-23T02:26:34;101794.30;;;12.45;42.86
45441;BME280;31189;38.790;-77.084;2024-03-23T02:29:00;101793.10;;;12.64;42.65
45441;BME280;31189;38.790;-77.084;2024-03-23T02:31:25;101792.62;;;12.71;42.27
45441;BME280;31189;38.790;-77.084;2024-03-23T02:33:51;101788.79;;;12.64;42.02
45441;BME280;31189;38.790;-77.084;2024-03-23T02:36:16;101786.34;;;12.59;42.65
45441;BME280;31189;38.790;-77.084;2024-03-23T02:38:42;101783.25;;;12.05;44.44
45441;BME280;31189;38.790;-77.084;2024-03-23T02:41:08;101788.14;;;12.22;44.78
45441;BME280;31189;38.790;-77.084;2024-03-23T02:43:33;101779.78;;;12.47;44.53
45441;BME280;31189;38.790;-77.084;2024-03-23T02:45:59;101774.51;;;11.72;45.48
45441;BME280;31189;38.790;-77.084;2024-03-23T02:48:24;101775.01;;;11.53;46.45
45441;BME280;31189;38.790;-77.084;2024-03-23T02:50:50;101771.56;;;11.38;49.26
45441;BME280;31189;38.790;-77.084;2024-03-23T02:53:15;101767.16;;;11.73;46.78
45441;BME280;31189;38.790;-77.084;2024-03-23T02:55:41;101763.73;;;12.24;47.85
45441;BME280;31189;38.790;-77.084;2024-03-23T02:58:07;101754.12;;;12.28;46.39
45441;BME280;31189;38.790;-77.084;2024-03-23T03:00:32;101750.55;;;11.95;46.73
45441;BME280;31189;38.790;-77.084;2024-03-23T03:02:58;101743.20;;;12.11;47.61
45441;BME280;31189;38.790;-77.084;2024-03-23T03:05:24;101738.19;;;12.23;47.11
45441;BME280;31189;38.790;-77.084;2024-03-23T03:07:49;101729.91;;;12.36;46.58
45441;BME280;31189;38.790;-77.084;2024-03-23T03:10:15;101719.62;;;12.21;47.40
45441;BME280;31189;38.790;-77.084;2024-03-23T03:12:40;101714.44;;;12.26;47.74
45441;BME280;31189;38.790;-77.084;2024-03-23T03:15:06;101710.79;;;12.09;48.42
45441;BME280;31189;38.790;-77.084;2024-03-23T03:17:32;101704.69;;;12.16;46.99
45441;BME280;31189;38.790;-77.084;2024-03-23T03:19:57;101703.06;;;12.78;44.61
45441;BME280;31189;38.790;-77.084;2024-03-23T03:22:23;101698.40;;;12.45;44.20
45441;BME280;31189;38.790;-77.084;2024-03-23T03:24:49;101697.81;;;11.92;45.05
45441;BME280;31189;38.790;-77.084;2024-03-23T03:27:14;101690.33;;;12.45;43.77
45441;BME280;31189;38.790;-77.084;2024-03-23T03:29:40;101688.93;;;12.48;46.36
45441;BME280;31189;38.790;-77.084;2024-03-23T03:32:06;101678.86;;;12.41;46.35
45441;BME280;31189;38.790;-77.084;2024-03-23T03:34:31;101674.82;;;12.62;48.26
45441;BME280;31189;38.790;-77.084;2024-03-23T03:36:57;101668.65;;;12.55;46.86
45441;BME280;31189;38.790;-77.084;2024-03-23T03:39:23;101664.79;;;12.44;48.83
45441;BME280;31189;38.790;-77.084;2024-03-23T03:41:48;101657.81;;;12.45;47.15
45441;BME280;31189;38.790;-77.084;2024-03-23T03:44:14;101656.27;;;12.56;46.45
45441;BME280;31189;38.790;-77.084;2024-03-23T03:46:40;101648.04;;;12.44;47.09
45441;BME280;31189;38.790;-77.084;2024-03-23T03:49:05;101641.33;;;12.32;47.60
45441;BME280;31189;38.790;-77.084;2024-03-23T03:51:31;101636.11;;;12.15;48.43
45441;BME280;31189;38.790;-77.084;2024-03-23T03:53:57;101635.23;;;11.97;49.17
45441;BME280;31189;38.790;-77.084;2024-03-23T03:56:22;101626.37;;;11.60;49.35
45441;BME280;31189;38.790;-77.084;2024-03-23T03:58:48;101618.45;;;11.98;47.02
45441;BME280;31189;38.790;-77.084;2024-03-23T04:01:14;101617.04;;;12.37;46.87
45441;BME280;31189;38.790;-77.084;2024-03-23T04:03:39;101610.20;;;11.73;49.49
45441;BME280;31189;38.790;-77.084;2024-03-23T04:06:05;101608.15;;;11.99;47.85
45441;BME280;31189;38.790;-77.084;2024-03-23T04:08:31;101602.72;;;11.84;49.55
45441;BME280;31189;38.790;-77.084;2024-03-23T04:10:57;101601.09;;;12.21;49.85
45441;BME280;31189;38.790;-77.084;2024-03-23T04:13:22;101596.25;;;11.57;50.86
45441;BME280;31189;38.790;-77.084;2024-03-23T04:15:48;101596.41;;;12.03;48.46
45441;BME280;31189;38.790;-77.084;2024-03-23T04:18:13;101591.58;;;12.32;46.97
45441;BME280;31189;38.790;-77.084;2024-03-23T04:20:39;101588.43;;;11.36;50.48
45441;BME280;31189;38.790;-77.084;2024-03-23T04:23:05;101586.55;;;11.46;48.36
45441;BME280;31189;38.790;-77.084;2024-03-23T04:25:30;101584.76;;;11.00;48.22
45441;BME280;31189;38.790;-77.084;2024-03-23T04:27:56;101582.08;;;10.99;46.28
45441;BME280;31189;38.790;-77.084;2024-03-23T04:30:22;101581.13;;;11.59;47.75
45441;BME280;31189;38.790;-77.084;2024-03-23T04:32:48;101575.49;;;11.71;48.14
45441;BME280;31189;38.790;-77.084;2024-03-23T04:35:13;101570.34;;;10.81;50.05
45441;BME280;31189;38.790;-77.084;2024-03-23T04:37:39;101565.06;;;11.60;48.64
45441;BME280;31189;38.790;-77.084;2024-03-23T04:40:05;101560.67;;;11.71;48.66
45441;BME280;31189;38.790;-77.084;2024-03-23T04:42:30;101561.13;;;11.73;47.30
45441;BME280;31189;38.790;-77.084;2024-03-23T04:44:57;101553.65;;;12.14;48.80
45441;BME280;31189;38.790;-77.084;2024-03-23T04:47:21;101549.35;;;11.73;49.78
45441;BME280;31189;38.790;-77.084;2024-03-23T04:49:47;101547.81;;;11.59;51.41
45441;BME280;31189;38.790;-77.084;2024-03-23T04:52:13;101545.05;;;10.70;52.78
45441;BME280;31189;38.790;-77.084;2024-03-23T04:54:38;101544.90;;;11.36;50.28
45441;BME280;31189;38.790;-77.084;2024-03-23T04:57:04;101536.59;;;11.25;51.85
45441;BME280;31189;38.790;-77.084;2024-03-23T04:59:29;101517.42;;;11.86;52.46
45441;BME280;31189;38.790;-77.084;2024-03-23T05:01:55;101518.74;;;10.91;53.22
45441;BME280;31189;38.790;-77.084;2024-03-23T05:04:21;101510.12;;;11.63;53.31
45441;BME280;31189;38.790;-77.084;2024-03-23T05:06:47;101501.61;;;11.27;54.48
45441;BME280;31189;38.790;-77.084;2024-03-23T05:09:12;101507.32;;;10.88;55.39
45441;BME280;31189;38.790;-77.084;2024-03-23T05:11:38;101501.93;;;11.45;53.54
45441;BME280;31189;38.790;-77.084;2024-03-23T05:14:03;101495.34;;;11.50;53.47
45441;BME280;31189;38.790;-77.084;2024-03-23T05:16:29;101494.57;;;10.88;56.58
45441;BME280;31189;38.790;-77.084;2024-03-23T05:18:55;101485.38;;;11.57;55.51
45441;BME280;31189;38.790;-77.084;2024-03-23T05:21:21;101478.57;;;11.75;54.04
45441;BME280;31189;38.790;-77.084;2024-03-23T05:23:46;101477.43;;;11.05;55.80
45441;BME280;31189;38.790;-77.084;2024-03-23T05:26:12;101470.12;;;10.94;55.31
45441;BME280;31189;38.790;-77.084;2024-03-23T05:28:37;101472.83;;;10.51;58.24
45441;BME280;31189;38.790;-77.084;2024-03-23T05:31:03;101469.01;;;10.60;58.16
45441;BME280;31189;38.790;-77.084;2024-03-23T05:33:28;101458.30;;;10.32;58.56
45441;BME280;31189;38.790;-77.084;2024-03-23T05:35:57;101452.73;;;10.26;59.78
45441;BME280;31189;38.790;-77.084;2024-03-23T05:38:20;101449.72;;;10.34;60.19
45441;BME280;31189;38.790;-77.084;2024-03-23T05:40:53;101451.53;;;10.95;58.05
45441;BME280;31189;38.790;-77.084;2024-03-23T05:43:11;101454.72;;;10.43;58.35
45441;BME280;31189;38.790;-77.084;2024-03-23T05:45:37;101457.96;;;11.10;56.72
45441;BME280;31189;38.790;-77.084;2024-03-23T05:48:02;101452.78;;;10.45;58.37
45441;BME280;31189;38.790;-77.084;2024-03-23T05:50:28;101442.76;;;10.89;57.49
45441;BME280;31189;38.790;-77.084;2024-03-23T05:52:53;101444.14;;;11.04;57.57
45441;BME280;31189;38.790;-77.084;2024-03-23T05:55:19;101433.57;;;10.90;57.12
45441;BME280;31189;38.790;-77.084;2024-03-23T05:57:45;101433.83;;;10.58;58.03
45441;BME280;31189;38.790;-77.084;2024-03-23T06:00:11;101430.70;;;10.70;57.69
45441;BME280;31189;38.790;-77.084;2024-03-23T06:02:36;101427.61;;;10.72;58.08
45441;BME280;31189;38.790;-77.084;2024-03-23T06:05:02;101421.24;;;10.92;57.53
45441;BME280;31189;38.790;-77.084;2024-03-23T06:07:28;101422.37;;;10.60;57.58
45441;BME280;31189;38.790;-77.084;2024-03-23T06:09:53;101417.94;;;11.11;56.80
45441;BME280;31189;38.790;-77.084;2024-03-23T06:12:19;101415.94;;;11.07;56.73
45441;BME280;31189;38.790;-77.084;2024-03-23T06:14:45;101411.27;;;10.90;56.48
45441;BME280;31189;38.790;-77.084;2024-03-23T06:17:10;101410.77;;;10.44;57.64
45441;BME280;31189;38.790;-77.084;2024-03-23T06:19:36;101408.40;;;10.50;58.82
45441;BME280;31189;38.790;-77.084;2024-03-23T06:22:01;101399.77;;;10.14;59.94
45441;BME280;31189;38.790;-77.084;2024-03-23T06:24:27;101397.94;;;9.76;61.28
45441;BME280;31189;38.790;-77.084;2024-03-23T06:26:53;101387.24;;;10.17;59.81
45441;BME280;31189;38.790;-77.084;2024-03-23T06:29:18;101390.08;;;10.14;60.77
45441;BME280;31189;38.790;-77.084;2024-03-23T06:31:44;101384.47;;;10.66;59.37
45441;BME280;31189;38.790;-77.084;2024-03-23T06:34:10;101371.66;;;10.50;59.33
45441;BME280;31189;38.790;-77.084;2024-03-23T06:36:35;101379.98;;;9.29;61.98
45441;BME280;31189;38.790;-77.084;2024-03-23T06:39:01;101366.59;;;10.78;57.91
45441;BME280;31189;38.790;-77.084;2024-03-23T06:41:27;101362.55;;;10.27;59.83
45441;BME280;31189;38.790;-77.084;2024-03-23T06:43:52;101351.81;;;10.36;59.10
45441;BME280;31189;38.790;-77.084;2024-03-23T06:46:18;101343.47;;;10.24;59.06
45441;BME280;31189;38.790;-77.084;2024-03-23T06:48:45;101342.61;;;10.19;59.84
45441;BME280;31189;38.790;-77.084;2024-03-23T06:51:09;101337.27;;;9.62;61.67
45441;BME280;31189;38.790;-77.084;2024-03-23T06:53:35;101316.52;;;10.25;60.30
45441;BME280;31189;38.790;-77.084;2024-03-23T06:56:00;101304.16;;;10.32;59.78
45441;BME280;31189;38.790;-77.084;2024-03-23T06:58:26;101302.36;;;9.99;61.24
45441;BME280;31189;38.790;-77.084;2024-03-23T07:00:52;101287.78;;;9.98;62.10
45441;BME280;31189;38.790;-77.084;2024-03-23T07:03:18;101283.41;;;9.62;63.23
45441;BME280;31189;38.790;-77.084;2024-03-23T07:05:43;101268.43;;;10.57;61.18
45441;BME280;31189;38.790;-77.084;2024-03-23T07:08:09;101267.76;;;9.91;61.54
45441;BME280;31189;38.790;-77.084;2024-03-23T07:10:34;101263.05;;;10.19;62.02
45441;BME280;31189;38.790;-77.084;2024-03-23T07:13:00;101262.29;;;10.00;62.05
45441;BME280;31189;38.790;-77.084;2024-03-23T07:15:25;101253.16;;;10.48;61.64
45441;BME280;31189;38.790;-77.084;2024-03-23T07:17:51;101253.01;;;10.24;61.99
45441;BME280;31189;38.790;-77.084;2024-03-23T07:20:16;101246.01;;;10.11;63.06
45441;BME280;31189;38.790;-77.084;2024-03-23T07:22:42;101238.65;;;10.43;61.90
45441;BME280;31189;38.790;-77.084;2024-03-23T07:25:08;101234.47;;;10.62;60.95
45441;BME280;31189;38.790;-77.084;2024-03-23T07:27:33;101226.02;;;10.79;60.42
45441;BME280;31189;38.790;-77.084;2024-03-23T07:29:59;101221.67;;;10.25;61.35
45441;BME280;31189;38.790;-77.084;2024-03-23T07:32:24;101212.16;;;10.38;60.96
45441;BME280;31189;38.790;-77.084;2024-03-23T07:34:50;101210.10;;;11.07;60.27
45441;BME280;31189;38.790;-77.084;2024-03-23T07:37:16;101207.72;;;10.96;60.47
45441;BME280;31189;38.790;-77.084;2024-03-23T07:39:41;101200.05;;;10.71;61.25
45441;BME280;31189;38.790;-77.084;2024-03-23T07:42:07;101196.18;;;10.69;60.79
45441;BME280;31189;38.790;-77.084;2024-03-23T07:44:32;101192.47;;;10.77;60.58
45441;BME280;31189;38.790;-77.084;2024-03-23T07:47:00;101187.04;;;10.52;61.32
45441;BME280;31189;38.790;-77.084;2024-03-23T07:49:24;101178.43;;;10.99;59.97
45441;BME280;31189;38.790;-77.084;2024-03-23T07:51:49;101170.06;;;10.72;60.73
45441;BME280;31189;38.790;-77.084;2024-03-23T07:54:15;101167.54;;;10.30;60.98
45441;BME280;31189;38.790;-77.084;2024-03-23T07:56:40;101160.08;;;10.67;61.26
45441;BME280;31189;38.790;-77.084;2024-03-23T07:59:06;101150.76;;;9.35;65.51
45441;BME280;31189;38.790;-77.084;2024-03-23T08:01:32;101146.96;;;9.98;63.94
45441;BME280;31189;38.790;-77.084;2024-03-23T08:03:57;101142.32;;;10.68;63.43
45441;BME280;31189;38.790;-77.084;2024-03-23T08:06:23;101140.16;;;10.46;63.03
45441;BME280;31189;38.790;-77.084;2024-03-23T08:08:51;101131.97;;;10.66;63.00
45441;BME280;31189;38.790;-77.084;2024-03-23T08:11:14;101126.40;;;10.36;62.56
45441;BME280;31189;38.790;-77.084;2024-03-23T08:13:41;101115.50;;;10.12;64.32
45441;BME280;31189;38.790;-77.084;2024-03-23T08:16:06;101112.67;;;10.12;64.61
45441;BME280;31189;38.790;-77.084;2024-03-23T08:18:31;101104.93;;;10.09;65.43
45441;BME280;31189;38.790;-77.084;2024-03-23T08:20:57;101096.25;;;10.12;64.37
45441;BME280;31189;38.790;-77.084;2024-03-23T08:23:22;101093.46;;;9.92;65.31
45441;BME280;31189;38.790;-77.084;2024-03-23T08:25:47;101085.36;;;9.64;66.38
45441;BME280;31189;38.790;-77.084;2024-03-23T08:28:13;101074.52;;;10.10;63.61
45441;BME280;31189;38.790;-77.084;2024-03-23T08:30:38;101065.72;;;10.46;63.75
45441;BME280;31189;38.790;-77.084;2024-03-23T08:33:04;101077.49;;;10.00;64.01
45441;BME280;31189;38.790;-77.084;2024-03-23T08:35:30;101071.07;;;10.12;64.14
45441;BME280;31189;38.790;-77.084;2024-03-23T08:37:55;101071.79;;;9.70;66.40
45441;BME280;31189;38.790;-77.084;2024-03-23T08:40:20;101066.58;;;10.08;64.96
45441;BME280;31189;38.790;-77.084;2024-03-23T08:42:46;101065.45;;;10.39;65.09
45441;BME280;31189;38.790;-77.084;2024-03-23T08:45:11;101062.83;;;10.28;64.59
45441;BME280;31189;38.790;-77.084;2024-03-23T08:47:37;101067.93;;;10.00;65.97
45441;BME280;31189;38.790;-77.084;2024-03-23T08:50:03;101066.58;;;10.34;64.53
45441;BME280;31189;38.790;-77.084;2024-03-23T08:52:28;101063.95;;;10.08;63.73
45441;BME280;31189;38.790;-77.084;2024-03-23T08:54:54;101067.09;;;10.66;63.09
45441;BME280;31189;38.790;-77.084;2024-03-23T08:57:20;101061.01;;;10.59;62.99
45441;BME280;31189;38.790;-77.084;2024-03-23T08:59:45;101055.69;;;10.86;62.43
45441;BME280;31189;38.790;-77.084;2024-03-23T09:02:11;101053.04;;;10.25;63.34
45441;BME280;31189;38.790;-77.084;2024-03-23T09:04:37;101050.45;;;10.59;62.83
45441;BME280;31189;38.790;-77.084;2024-03-23T09:07:03;101051.31;;;10.66;62.63
45441;BME280;31189;38.790;-77.084;2024-03-23T09:09:28;101061.24;;;9.23;66.24
45441;BME280;31189;38.790;-77.084;2024-03-23T09:11:53;101054.52;;;9.36;68.11
45441;BME280;31189;38.790;-77.084;2024-03-23T09:14:19;101037.29;;;10.00;65.52
45441;BME280;31189;38.790;-77.084;2024-03-23T09:16:44;101036.90;;;10.23;65.10
45441;BME280;31189;38.790;-77.084;2024-03-23T09:19:10;101032.77;;;10.13;64.83
45441;BME280;31189;38.790;-77.084;2024-03-23T09:21:36;101028.23;;;10.65;62.99
45441;BME280;31189;38.790;-77.084;2024-03-23T09:24:01;101023.20;;;10.61;64.13
45441;BME280;31189;38.790;-77.084;2024-03-23T09:26:27;101018.33;;;10.66;63.27
45441;BME280;31189;38.790;-77.084;2024-03-23T09:28:53;101012.81;;;10.69;63.39
45441;BME280;31189;38.790;-77.084;2024-03-23T09:31:19;101005.92;;;10.66;62.92
45441;BME280;31189;38.790;-77.084;2024-03-23T09:33:44;100998.36;;;10.91;62.61
45441;BME280;31189;38.790;-77.084;2024-03-23T09:36:10;101000.49;;;10.02;65.03
45441;BME280;31189;38.790;-77.084;2024-03-23T09:38:35;100995.82;;;10.60;63.34
45441;BME280;31189;38.790;-77.084;2024-03-23T09:41:07;100989.47;;;10.62;63.18
45441;BME280;31189;38.790;-77.084;2024-03-23T09:43:27;100973.85;;;10.27;63.99
45441;BME280;31189;38.790;-77.084;2024-03-23T09:45:53;100968.84;;;10.60;63.79
45441;BME280;31189;38.790;-77.084;2024-03-23T09:48:18;100970.88;;;10.96;61.85
45441;BME280;31189;38.790;-77.084;2024-03-23T09:50:44;100967.05;;;11.14;61.74
45441;BME280;31189;38.790;-77.084;2024-03-23T09:53:10;100966.58;;;10.48;63.47
45441;BME280;31189;38.790;-77.084;2024-03-23T09:55:35;100960.73;;;10.95;63.18
45441;BME280;31189;38.790;-77.084;2024-03-23T09:58:00;100949.01;;;10.76;61.82
45441;BME280;31189;38.790;-77.084;2024-03-23T10:00:26;100944.78;;;10.28;63.36
45441;BME280;31189;38.790;-77.084;2024-03-23T10:02:51;100946.32;;;10.84;64.11
45441;BME280;31189;38.790;-77.084;2024-03-23T10:05:21;100935.17;;;9.78;66.08
45441;BME280;31189;38.790;-77.084;2024-03-23T10:07:43;100921.86;;;10.36;64.98
45441;BME280;31189;38.790;-77.084;2024-03-23T10:10:11;100917.74;;;10.83;62.82
45441;BME280;31189;38.790;-77.084;2024-03-23T10:12:34;100910.58;;;10.35;64.16
45441;BME280;31189;38.790;-77.084;2024-03-23T10:15:00;100899.54;;;10.41;64.92
45441;BME280;31189;38.790;-77.084;2024-03-23T10:17:25;100889.23;;;11.00;63.82
45441;BME280;31189;38.790;-77.084;2024-03-23T10:19:52;100876.62;;;10.05;64.84
45441;BME280;31189;38.790;-77.084;2024-03-23T10:22:19;100875.13;;;10.41;64.41
45441;BME280;31189;38.790;-77.084;2024-03-23T10:24:42;100880.59;;;10.88;62.83
45441;BME280;31189;38.790;-77.084;2024-03-23T10:27:08;100872.80;;;11.00;61.87
45441;BME280;31189;38.790;-77.084;2024-03-23T10:29:34;100848.67;;;10.15;64.87
45441;BME280;31189;38.790;-77.084;2024-03-23T10:32:07;100819.24;;;10.15;65.18
45441;BME280;31189;38.790;-77.084;2024-03-23T10:34:26;100809.31;;;10.53;64.10
45441;BME280;31189;38.790;-77.084;2024-03-23T10:36:51;100813.53;;;10.50;64.26
45441;BME280;31189;38.790;-77.084;2024-03-23T10:39:16;100818.72;;;10.32;64.79
45441;BME280;31189;38.790;-77.084;2024-03-23T10:41:42;100814.48;;;10.55;63.72
45441;BME280;31189;38.790;-77.084;2024-03-23T10:44:07;100805.96;;;10.13;65.32
45441;BME280;31189;38.790;-77.084;2024-03-23T10:46:32;100804.24;;;10.28;64.81
45441;BME280;31189;38.790;-77.084;2024-03-23T10:48:58;100803.53;;;10.77;63.63
45441;BME280;31189;38.790;-77.084;2024-03-23T10:51:24;100797.75;;;10.66;62.87
45441;BME280;31189;38.790;-77.084;2024-03-23T10:53:50;100785.12;;;9.84;66.93
45441;BME280;31189;38.790;-77.084;2024-03-23T10:56:16;100771.60;;;9.34;69.50
45441;BME280;31189;38.790;-77.084;2024-03-23T10:58:43;100767.42;;;9.58;68.22
45441;BME280;31189;38.790;-77.084;2024-03-23T11:01:06;100781.28;;;9.69;68.52
45441;BME280;31189;38.790;-77.084;2024-03-23T11:03:34;100784.16;;;9.43;69.19
45441;BME280;31189;38.790;-77.084;2024-03-23T11:05:58;100779.35;;;9.39;70.10
45441;BME280;31189;38.790;-77.084;2024-03-23T11:08:31;100770.36;;;9.52;69.11
45441;BME280;31189;38.790;-77.084;2024-03-23T11:10:48;100771.03;;;9.61;69.81
45441;BME280;31189;38.790;-77.084;2024-03-23T11:13:21;100777.99;;;9.55;69.23
45441;BME280;31189;38.790;-77.084;2024-03-23T11:15:39;100784.82;;;8.88;72.84
45441;BME280;31189;38.790;-77.084;2024-03-23T11:18:07;100793.50;;;8.26;73.64
45441;BME280;31189;38.790;-77.084;2024-03-23T11:20:33;100793.23;;;10.00;69.24
45441;BME280;31189;38.790;-77.084;2024-03-23T11:22:56;100780.80;;;9.77;69.37
45441;BME280;31189;38.790;-77.084;2024-03-23T11:25:23;100772.24;;;10.09;69.36
45441;BME280;31189;38.790;-77.084;2024-03-23T11:27:49;100759.85;;;10.39;67.29
45441;BME280;31189;38.790;-77.084;2024-03-23T11:30:15;100755.38;;;10.68;65.63
45441;BME280;31189;38.790;-77.084;2024-03-23T11:32:39;100755.52;;;10.44;65.82
45441;BME280;31189;38.790;-77.084;2024-03-23T11:35:05;100770.03;;;10.70;65.12
45441;BME280;31189;38.790;-77.084;2024-03-23T11:37:30;100780.58;;;10.54;65.07
45441;BME280;31189;38.790;-77.084;2024-03-23T11:39:56;100783.14;;;10.29;65.07
45441;BME280;31189;38.790;-77.084;2024-03-23T11:42:22;100785.79;;;9.97;67.21
45441;BME280;31189;38.790;-77.084;2024-03-23T11:44:47;100787.88;;;10.79;65.06
45441;BME280;31189;38.790;-77.084;2024-03-23T11:47:13;100782.13;;;11.01;64.08
45441;BME280;31189;38.790;-77.084;2024-03-23T11:49:38;100771.48;;;10.82;63.45
45441;BME280;31189;38.790;-77.084;2024-03-23T11:52:05;100754.73;;;10.38;64.34
45441;BME280;31189;38.790;-77.084;2024-03-23T11:54:30;100748.56;;;10.78;63.61
45441;BME280;31189;38.790;-77.084;2024-03-23T11:56:57;100740.10;;;10.40;64.67
45441;BME280;31189;38.790;-77.084;2024-03-23T11:59:32;100730.88;;;10.41;66.08
45441;BME280;31189;38.790;-77.084;2024-03-23T12:01:47;100732.06;;;9.92;66.67
45441;BME280;31189;38.790;-77.084;2024-03-23T12:04:13;100724.34;;;10.31;65.45
45441;BME280;31189;38.790;-77.084;2024-03-23T12:06:38;100705.81;;;9.62;68.36
45441;BME280;31189;38.790;-77.084;2024-03-23T12:09:06;100707.75;;;10.25;67.46
45441;BME280;31189;38.790;-77.084;2024-03-23T12:11:30;100707.87;;;10.33;65.29
45441;BME280;31189;38.790;-77.084;2024-03-23T12:14:00;100707.41;;;8.97;69.73
45441;BME280;31189;38.790;-77.084;2024-03-23T12:16:21;100706.75;;;10.21;67.12
45441;BME280;31189;38.790;-77.084;2024-03-23T12:18:48;100705.39;;;10.35;65.78
45441;BME280;31189;38.790;-77.084;2024-03-23T12:21:12;100713.46;;;10.16;66.01
45441;BME280;31189;38.790;-77.084;2024-03-23T12:23:40;100713.73;;;10.02;67.29
45441;BME280;31189;38.790;-77.084;2024-03-23T12:26:04;100711.54;;;10.23;66.12
45441;BME280;31189;38.790;-77.084;2024-03-23T12:28:29;100712.38;;;10.70;65.33
45441;BME280;31189;38.790;-77.084;2024-03-23T12:30:55;100712.86;;;10.01;66.08
45441;BME280;31189;38.790;-77.084;2024-03-23T12:33:21;100709.30;;;10.23;65.64
45441;BME280;31189;38.790;-77.084;2024-03-23T12:35:46;100700.90;;;10.70;64.83
45441;BME280;31189;38.790;-77.084;2024-03-23T12:38:12;100692.79;;;8.61;71.14
45441;BME280;31189;38.790;-77.084;2024-03-23T12:40:38;100687.33;;;9.85;68.60
45441;BME280;31189;38.790;-77.084;2024-03-23T12:43:03;100681.87;;;9.56;70.02
45441;BME280;31189;38.790;-77.084;2024-03-23T12:45:29;100664.07;;;10.48;67.10
45441;BME280;31189;38.790;-77.084;2024-03-23T12:47:55;100656.39;;;10.05;68.08
45441;BME280;31189;38.790;-77.084;2024-03-23T12:50:20;100657.21;;;9.82;68.99
45441;BME280;31189;38.790;-77.084;2024-03-23T12:52:46;100653.97;;;9.64;69.61
45441;BME280;31189;38.790;-77.084;2024-03-23T12:55:11;100646.91;;;9.98;68.94
45441;BME280;31189;38.790;-77.084;2024-03-23T12:57:37;100638.30;;;9.93;69.44
45441;BME280;31189;38.790;-77.084;2024-03-23T13:00:04;100639.13;;;9.98;69.41
45441;BME280;31189;38.790;-77.084;2024-03-23T13:02:28;100639.69;;;9.78;69.64
45441;BME280;31189;38.790;-77.084;2024-03-23T13:04:54;100629.26;;;9.67;70.51
45441;BME280;31189;38.790;-77.084;2024-03-23T13:07:22;100625.03;;;10.18;69.01
45441;BME280;31189;38.790;-77.084;2024-03-23T13:09:46;100623.93;;;9.16;72.64
45441;BME280;31189;38.790;-77.084;2024-03-23T13:12:11;100617.83;;;10.01;69.51